createdAt,value
2018-12-01T00:00:30.078Z,89.32
2018-12-01T00:02:59.492Z,89.80
2018-12-01T00:05:34.417Z,89.68
2018-12-01T00:08:04.006Z,89.56
2018-12-01T00:10:33.011Z,89.55
2018-12-01T00:13:02.001Z,88.68
2018-12-01T00:15:31.258Z,88.42
2018-12-01T00:18:00.463Z,88.91
2018-12-01T00:20:35.301Z,88.97
2018-12-01T00:23:05.059Z,89.52
2018-12-01T00:25:34.136Z,89.36
2018-12-01T00:28:03.678Z,87.76
2018-12-01T00:30:32.635Z,88.36
2018-12-01T00:33:01.646Z,88.68
2018-12-01T00:35:30.627Z,88.39
2018-12-01T00:37:59.703Z,88.16
2018-12-01T00:40:28.676Z,88.59
2018-12-01T00:42:57.675Z,88.81
2018-12-01T00:45:26.695Z,88.69
2018-12-01T00:47:55.634Z,88.90
2018-12-01T00:50:24.965Z,89.06
2018-12-01T00:52:54.296Z,88.90
2018-12-01T00:55:23.417Z,89.23
2018-12-01T00:57:52.456Z,89.39
2018-12-01T01:00:27.316Z,88.85
2018-12-01T01:02:58.129Z,88.78
2018-12-01T01:05:31.157Z,88.79
2018-12-01T01:08:00.945Z,89.08
2018-12-01T01:10:32.704Z,88.71
2018-12-01T01:13:01.729Z,88.98
2018-12-01T01:15:30.722Z,88.95
2018-12-01T01:17:59.719Z,89.35
2018-12-01T01:20:28.745Z,89.65
2018-12-01T01:22:57.738Z,89.64
2018-12-01T01:25:26.838Z,89.04
2018-12-01T01:27:55.802Z,89.75
2018-12-01T01:30:24.883Z,89.42
2018-12-01T01:33:32.097Z,88.68
2018-12-01T01:36:01.099Z,88.66
2018-12-01T01:38:30.064Z,89.22
2018-12-01T01:41:04.507Z,89.01
2018-12-01T01:43:33.496Z,88.84
2018-12-01T01:46:02.510Z,89.25
2018-12-01T01:48:31.484Z,89.24
2018-12-01T01:51:00.527Z,89.24
2018-12-01T01:53:29.520Z,89.36
2018-12-01T01:55:58.505Z,89.48
2018-12-01T01:58:27.577Z,89.54
2018-12-01T02:00:56.585Z,89.74
2018-12-01T02:03:25.643Z,89.59
2018-12-01T02:05:54.633Z,89.78
2018-12-01T02:08:23.612Z,90.05
2018-12-01T02:10:52.894Z,89.98
2018-12-01T02:13:21.839Z,89.67
2018-12-01T02:15:50.829Z,89.77
2018-12-01T02:18:19.795Z,89.69
2018-12-01T02:20:48.808Z,89.30
2018-12-01T02:23:17.856Z,89.14
2018-12-01T02:25:46.827Z,89.77
2018-12-01T02:28:15.817Z,89.60
2018-12-01T02:30:44.827Z,89.42
2018-12-01T02:33:14.038Z,89.74
2018-12-01T02:35:43.090Z,89.74
2018-12-01T02:38:12.064Z,89.85
2018-12-01T02:40:41.043Z,89.58
2018-12-01T02:43:10.091Z,89.50
2018-12-01T02:45:55.809Z,89.00
2018-12-01T02:48:24.773Z,89.42
2018-12-01T02:50:53.745Z,89.56
2018-12-01T02:53:22.847Z,89.89
2018-12-01T02:55:51.821Z,89.99
2018-12-01T02:58:20.916Z,90.01
2018-12-01T03:00:49.963Z,90.29
2018-12-01T03:03:18.992Z,90.06
2018-12-01T03:05:47.960Z,89.81
2018-12-01T03:08:16.988Z,89.96
2018-12-01T03:10:46.007Z,90.00
2018-12-01T03:13:15.002Z,89.79
2018-12-01T03:15:44.040Z,89.33
2018-12-01T03:18:13.721Z,89.87
2018-12-01T03:20:42.217Z,90.14
2018-12-01T03:23:11.267Z,89.46
2018-12-01T03:25:40.247Z,89.53
2018-12-01T03:28:09.316Z,89.83
2018-12-01T03:30:39.005Z,89.52
2018-12-01T03:33:08.076Z,90.20
2018-12-01T03:35:37.106Z,90.04
2018-12-01T03:38:06.155Z,90.04
2018-12-01T03:40:40.592Z,89.85
2018-12-01T03:43:09.678Z,89.87
2018-12-01T03:45:38.721Z,89.85
2018-12-01T03:48:07.862Z,89.53
2018-12-01T03:50:36.910Z,89.77
2018-12-01T03:53:06.724Z,89.93
2018-12-01T03:55:35.891Z,90.24
2018-12-01T03:58:04.960Z,90.58
2018-12-01T04:00:36.467Z,89.90
2018-12-01T04:03:06.891Z,90.21
2018-12-01T04:05:35.852Z,89.39
2018-12-01T04:08:04.869Z,89.77
2018-12-01T04:10:33.912Z,90.01
2018-12-01T04:13:02.958Z,90.08
2018-12-01T04:15:31.992Z,89.92
2018-12-01T04:18:01.038Z,89.58
2018-12-01T04:20:30.021Z,89.95
2018-12-01T04:22:59.139Z,90.01
2018-12-01T04:25:28.196Z,89.94
2018-12-01T04:27:57.154Z,89.85
2018-12-01T04:30:26.522Z,89.77
2018-12-01T04:32:55.652Z,89.82
2018-12-01T04:35:24.907Z,89.50
2018-12-01T04:37:55.465Z,89.67
2018-12-01T04:40:25.257Z,89.64
2018-12-01T04:42:54.310Z,89.30
2018-12-01T04:45:23.361Z,89.41
2018-12-01T04:47:52.446Z,89.78
2018-12-01T04:50:21.521Z,89.66
2018-12-01T04:52:50.586Z,90.19
2018-12-01T04:55:20.562Z,90.28
2018-12-01T04:57:49.627Z,90.26
2018-12-01T05:00:21.514Z,89.97
2018-12-01T05:02:50.553Z,89.76
2018-12-01T05:05:22.204Z,89.87
2018-12-01T05:07:51.358Z,89.92
2018-12-01T05:10:21.912Z,90.20
2018-12-01T05:12:50.918Z,90.58
2018-12-01T05:15:20.165Z,90.52
2018-12-01T05:17:49.186Z,90.30
2018-12-01T05:20:21.721Z,90.41
2018-12-01T05:22:51.777Z,90.06
2018-12-01T05:25:20.864Z,90.24
2018-12-01T05:27:50.033Z,90.57
2018-12-01T05:30:19.043Z,90.48
2018-12-01T05:32:48.064Z,90.45
2018-12-01T05:35:20.721Z,90.14
2018-12-01T05:37:49.528Z,90.24
2018-12-01T05:40:19.309Z,90.80
2018-12-01T05:42:49.270Z,90.53
2018-12-01T05:45:20.677Z,90.34
2018-12-01T05:47:50.306Z,90.70
2018-12-01T05:50:25.126Z,91.06
2018-12-01T05:52:55.690Z,91.22
2018-12-01T05:55:24.958Z,91.13
2018-12-01T05:57:54.293Z,91.27
2018-12-01T06:00:23.332Z,91.25
2018-12-01T06:02:52.355Z,91.46
2018-12-01T06:05:21.377Z,91.51
2018-12-01T06:07:50.471Z,91.36
2018-12-01T06:10:22.230Z,91.61
2018-12-01T06:12:52.739Z,91.89
2018-12-01T06:15:21.856Z,91.65
2018-12-01T06:17:50.643Z,92.27
2018-12-01T06:20:21.572Z,91.90
2018-12-01T06:22:50.629Z,92.03
2018-12-01T06:25:21.571Z,91.90
2018-12-01T06:27:50.429Z,92.06
2018-12-01T06:30:20.557Z,92.08
2018-12-01T06:32:50.941Z,91.90
2018-12-01T06:35:19.971Z,91.75
2018-12-01T06:37:49.104Z,92.05
2018-12-01T06:40:20.777Z,91.90
2018-12-01T06:42:49.909Z,91.93
2018-12-01T06:45:18.803Z,92.07
2018-12-01T06:47:47.820Z,91.73
2018-12-01T06:50:22.746Z,92.21
2018-12-01T06:52:53.094Z,92.35
2018-12-01T06:55:23.340Z,92.72
2018-12-01T06:57:53.163Z,92.55
2018-12-01T07:00:25.169Z,92.29
2018-12-01T07:02:55.821Z,92.01
2018-12-01T07:05:25.831Z,92.22
2018-12-01T07:07:54.931Z,92.43
2018-12-01T07:10:24.263Z,92.51
2018-12-01T07:12:57.718Z,92.21
2018-12-01T07:15:29.543Z,91.84
2018-12-01T07:17:58.602Z,91.82
2018-12-01T07:20:27.655Z,91.73
2018-12-01T07:22:56.704Z,91.93
2018-12-01T07:25:25.683Z,92.05
2018-12-01T07:27:54.698Z,91.88
2018-12-01T07:30:23.756Z,91.93
2018-12-01T07:32:52.756Z,91.78
2018-12-01T07:35:21.780Z,91.26
2018-12-01T07:37:50.754Z,91.27
2018-12-01T07:40:19.829Z,91.29
2018-12-01T07:42:48.872Z,91.13
2018-12-01T07:45:17.891Z,91.61
2018-12-01T07:47:46.868Z,91.50
2018-12-01T07:50:17.487Z,91.09
2018-12-01T07:52:52.150Z,90.94
2018-12-01T07:55:21.160Z,91.18
2018-12-01T07:57:50.370Z,90.46
2018-12-01T08:00:19.582Z,90.22
2018-12-01T08:02:49.823Z,90.45
2018-12-01T08:05:18.867Z,89.82
2018-12-01T08:07:47.900Z,89.41
2018-12-01T08:10:17.220Z,89.04
2018-12-01T08:12:46.240Z,88.52
2018-12-01T08:15:17.360Z,86.96
2018-12-01T08:17:47.200Z,86.67
2018-12-01T08:20:17.156Z,86.29
2018-12-01T08:22:46.172Z,86.24
2018-12-01T08:25:19.708Z,85.49
2018-12-01T08:27:51.873Z,85.25
2018-12-01T08:30:23.771Z,86.12
2018-12-01T08:32:53.078Z,85.66
2018-12-01T08:35:22.534Z,85.37
2018-12-01T08:37:52.172Z,85.54
2018-12-01T08:40:26.384Z,86.00
2018-12-01T08:42:55.411Z,86.42
2018-12-01T08:45:24.438Z,86.15
2018-12-01T08:47:53.483Z,86.46
2018-12-01T08:50:23.721Z,85.90
2018-12-01T08:52:53.266Z,86.07
2018-12-01T08:55:24.350Z,86.21
2018-12-01T08:57:54.273Z,85.97
2018-12-01T09:00:32.910Z,85.83
2018-12-01T09:03:06.565Z,85.92
2018-12-01T09:05:35.628Z,85.05
2018-12-01T09:08:05.401Z,84.56
2018-12-01T09:10:34.427Z,85.48
2018-12-01T09:13:03.447Z,84.26
2018-12-01T09:15:36.829Z,82.18
2018-12-01T09:18:01.453Z,80.84
2018-12-01T09:20:30.542Z,79.54
2018-12-01T09:22:59.591Z,79.07
2018-12-01T09:25:28.625Z,79.78
2018-12-01T09:27:57.657Z,79.53
2018-12-01T09:30:29.424Z,79.12
2018-12-01T09:32:58.462Z,78.90
2018-12-01T09:35:27.501Z,79.21
2018-12-01T09:37:56.496Z,79.37
2018-12-01T09:40:25.715Z,77.27
2018-12-01T09:42:54.721Z,76.48
2018-12-01T09:45:25.052Z,74.76
2018-12-01T09:47:55.651Z,75.46
2018-12-01T09:50:24.761Z,76.05
2018-12-01T09:52:56.391Z,75.94
2018-12-01T09:55:28.058Z,76.27
2018-12-01T09:57:58.590Z,76.24
2018-12-01T10:00:30.953Z,77.23
2018-12-01T10:03:01.514Z,77.18
2018-12-01T10:05:31.362Z,77.19
2018-12-01T10:08:00.437Z,76.96
2018-12-01T10:10:29.513Z,75.90
2018-12-01T10:12:58.915Z,75.99
2018-12-01T10:15:34.541Z,74.56
2018-12-01T10:18:03.696Z,74.93
2018-12-01T10:20:35.015Z,75.63
2018-12-01T10:23:09.492Z,75.88
2018-12-01T10:25:38.515Z,74.66
2018-12-01T10:28:09.472Z,73.66
2018-12-01T10:30:38.592Z,72.20
2018-12-01T10:33:07.931Z,72.22
2018-12-01T10:35:37.644Z,70.51
2018-12-01T10:38:11.415Z,69.64
2018-12-01T10:40:40.794Z,68.79
2018-12-01T10:43:09.792Z,67.93
2018-12-01T10:45:38.832Z,69.31
2018-12-01T10:48:09.255Z,71.04
2018-12-01T10:50:39.018Z,70.96
2018-12-01T10:53:08.403Z,70.76
2018-12-01T10:55:37.506Z,71.28
2018-12-01T10:58:12.777Z,70.96
2018-12-01T11:00:48.977Z,71.92
2018-12-01T11:03:23.884Z,72.75
2018-12-01T11:05:54.073Z,73.39
2018-12-01T11:08:23.195Z,74.36
2018-12-01T11:10:55.191Z,73.77
2018-12-01T11:13:21.625Z,73.70
2018-12-01T11:15:50.696Z,73.95
2018-12-01T11:18:19.783Z,74.51
2018-12-01T11:20:48.911Z,74.32
2018-12-01T11:23:18.006Z,74.04
2018-12-01T11:25:47.125Z,74.33
2018-12-01T11:28:16.148Z,74.19
2018-12-01T11:30:45.272Z,74.14
2018-12-01T11:33:14.355Z,74.27
2018-12-01T11:35:43.460Z,75.08
2018-12-01T11:38:12.502Z,75.21
2018-12-01T11:40:41.581Z,74.98
2018-12-01T11:43:10.852Z,74.08
2018-12-01T11:45:40.017Z,71.72
2018-12-01T11:48:09.747Z,71.17
2018-12-01T11:50:40.441Z,69.10
2018-12-01T11:53:10.485Z,68.49
2018-12-01T11:55:39.569Z,68.11
2018-12-01T11:58:08.588Z,68.10
2018-12-01T12:00:37.839Z,67.75
2018-12-01T12:03:06.901Z,68.01
2018-12-01T12:05:36.028Z,70.05
2018-12-01T12:08:26.023Z,70.76
2018-12-01T12:10:55.544Z,69.89
2018-12-01T12:13:26.017Z,69.76
2018-12-01T12:15:55.379Z,70.01
2018-12-01T12:18:24.501Z,71.10
2018-12-01T12:20:53.589Z,70.24
2018-12-01T12:23:22.618Z,70.96
2018-12-01T12:25:51.652Z,70.94
2018-12-01T12:28:20.724Z,69.17
2018-12-01T12:30:49.724Z,68.85
2018-12-01T12:33:19.486Z,69.74
2018-12-01T12:35:48.813Z,69.44
2018-12-01T12:38:22.465Z,69.32
2018-12-01T12:40:52.064Z,69.79
2018-12-01T12:43:22.155Z,70.33
2018-12-01T12:45:51.376Z,71.45
2018-12-01T12:48:20.598Z,70.54
2018-12-01T12:50:53.081Z,70.62
2018-12-01T12:53:18.762Z,71.24
2018-12-01T12:55:47.844Z,71.30
2018-12-01T12:58:17.019Z,71.07
2018-12-01T13:00:46.006Z,71.94
2018-12-01T13:03:15.030Z,73.04
2018-12-01T13:05:45.620Z,71.94
2018-12-01T13:08:17.783Z,72.44
2018-12-01T13:10:46.973Z,72.60
2018-12-01T13:13:16.122Z,72.59
2018-12-01T13:15:45.266Z,72.91
2018-12-01T13:18:15.071Z,73.97
2018-12-01T13:20:46.162Z,73.10
2018-12-01T13:23:15.343Z,73.64
2018-12-01T13:25:44.480Z,73.34
2018-12-01T13:28:15.869Z,73.38
2018-12-01T13:30:52.299Z,73.34
2018-12-01T13:33:21.492Z,74.56
2018-12-01T13:35:50.578Z,74.56
2018-12-01T13:38:19.739Z,74.54
2018-12-01T13:40:48.793Z,74.44
2018-12-01T13:43:17.867Z,74.47
2018-12-01T13:45:46.972Z,74.72
2018-12-01T13:48:15.973Z,74.72
2018-12-01T13:50:45.004Z,74.62
2018-12-01T13:53:14.721Z,74.88
2018-12-01T13:55:43.824Z,86.66
2018-12-01T13:58:12.884Z,76.42
2018-12-01T14:00:42.197Z,74.86
2018-12-01T14:03:11.388Z,73.95
2018-12-01T14:05:41.840Z,77.92
2018-12-01T14:08:10.904Z,76.61
2018-12-01T14:10:44.116Z,75.94
2018-12-01T14:13:14.223Z,74.81
2018-12-01T14:15:43.328Z,72.78
2018-12-01T14:18:13.221Z,74.59
2018-12-01T14:20:42.203Z,71.94
2018-12-01T14:23:11.209Z,72.93
2018-12-01T14:25:40.226Z,71.62
2018-12-01T14:28:11.030Z,70.02
2018-12-01T14:30:40.061Z,70.03
2018-12-01T14:33:11.150Z,69.16
2018-12-01T14:35:40.262Z,69.53
2018-12-01T14:38:14.055Z,70.65
2018-12-01T14:40:45.724Z,71.25
2018-12-01T14:43:14.793Z,71.08
2018-12-01T14:45:45.530Z,70.76
2018-12-01T14:48:14.526Z,72.17
2018-12-01T14:50:48.312Z,73.80
2018-12-01T14:53:14.802Z,75.21
2018-12-01T14:55:43.866Z,76.42
2018-12-01T14:58:12.908Z,76.82
2018-12-01T15:00:41.969Z,77.51
2018-12-01T15:03:11.122Z,78.38
2018-12-01T15:05:41.249Z,78.64
2018-12-01T15:08:10.352Z,78.53
2018-12-01T15:10:39.471Z,79.48
2018-12-01T15:13:08.563Z,80.69
2018-12-01T15:15:37.746Z,81.53
2018-12-01T15:18:07.004Z,81.70
2018-12-01T15:20:36.049Z,81.48
2018-12-01T15:23:06.313Z,81.24
2018-12-01T15:25:35.550Z,82.13
2018-12-01T15:28:04.976Z,81.66
2018-12-01T15:30:34.271Z,81.75
2018-12-01T15:33:12.314Z,82.96
2018-12-01T15:35:42.800Z,83.01
2018-12-01T15:38:11.917Z,82.61
2018-12-01T15:40:44.210Z,82.54
2018-12-01T15:43:13.275Z,82.64
2018-12-01T15:45:42.703Z,83.15
2018-12-01T15:48:11.793Z,83.79
2018-12-01T15:50:41.161Z,83.99
2018-12-01T15:53:16.791Z,84.48
2018-12-01T15:55:45.898Z,84.86
2018-12-01T15:58:14.981Z,84.51
2018-12-01T16:00:44.439Z,84.23
2018-12-01T16:03:13.558Z,83.98
2018-12-01T16:05:43.453Z,84.28
2018-12-01T16:08:12.622Z,84.61
2018-12-01T16:10:41.686Z,84.45
2018-12-01T16:13:16.164Z,85.19
2018-12-01T16:15:49.017Z,85.83
2018-12-01T16:18:18.047Z,85.64
2018-12-01T16:20:47.110Z,86.28
2018-12-01T16:23:16.228Z,86.55
2018-12-01T16:25:45.396Z,86.74
2018-12-01T16:28:14.379Z,87.31
2018-12-01T16:30:45.192Z,87.09
2018-12-01T16:33:16.971Z,86.57
2018-12-01T16:35:46.125Z,87.00
2018-12-01T16:38:23.704Z,87.15
2018-12-01T16:40:56.215Z,87.71
2018-12-01T16:43:26.647Z,88.24
2018-12-01T16:45:56.156Z,88.15
2018-12-01T16:48:25.169Z,88.29
2018-12-01T16:50:54.228Z,88.42
2018-12-01T16:53:23.683Z,88.21
2018-12-01T16:55:52.932Z,87.89
2018-12-01T16:58:21.997Z,88.04
2018-12-01T17:00:51.075Z,87.83
2018-12-01T17:03:20.079Z,87.62
2018-12-01T17:05:53.805Z,87.60
2018-12-01T17:08:22.853Z,87.50
2018-12-01T17:10:52.056Z,87.71
2018-12-01T17:13:21.080Z,87.69
2018-12-01T17:15:50.085Z,87.88
2018-12-01T17:18:19.155Z,88.89
2018-12-01T17:20:48.225Z,88.52
2018-12-01T17:23:17.648Z,88.41
2018-12-01T17:25:46.603Z,87.93
2018-12-01T17:28:19.796Z,89.09
2018-12-01T17:30:49.577Z,88.65
2018-12-01T17:33:18.935Z,88.51
2018-12-01T17:35:48.009Z,88.57
2018-12-01T17:38:20.034Z,88.17
2018-12-01T17:41:00.454Z,88.99
2018-12-01T17:43:38.832Z,89.14
2018-12-01T17:46:07.853Z,89.13
2018-12-01T17:48:36.958Z,89.53
2018-12-01T17:51:06.036Z,89.22
2018-12-01T17:53:35.003Z,89.58
2018-12-01T17:56:04.093Z,89.46
2018-12-01T17:58:33.296Z,89.33
2018-12-01T18:01:02.256Z,89.46
2018-12-01T18:03:31.306Z,89.30
2018-12-01T18:06:00.431Z,88.85
2018-12-01T18:08:29.457Z,89.43
2018-12-01T18:10:58.422Z,89.33
2018-12-01T18:13:27.475Z,89.04
2018-12-01T18:15:56.497Z,89.75
2018-12-01T18:18:25.504Z,89.37
2018-12-01T18:20:54.844Z,89.02
2018-12-01T18:23:23.860Z,89.44
2018-12-01T18:25:54.518Z,89.35
2018-12-01T18:28:26.742Z,89.46
2018-12-01T18:30:57.133Z,89.37
2018-12-01T18:33:31.111Z,89.71
2018-12-01T18:36:00.575Z,90.44
2018-12-01T18:38:29.846Z,90.41
2018-12-01T18:40:59.827Z,90.66
2018-12-01T18:43:29.754Z,90.75
2018-12-01T18:46:01.724Z,90.33
2018-12-01T18:48:31.012Z,90.66
2018-12-01T18:51:00.036Z,91.11
2018-12-01T18:53:29.016Z,90.99
2018-12-01T18:55:58.485Z,90.96
2018-12-01T18:58:27.512Z,90.62
2018-12-01T19:00:57.551Z,90.36
2018-12-01T19:03:29.658Z,91.30
2018-12-01T19:05:58.700Z,90.67
2018-12-01T19:08:27.735Z,91.05
2018-12-01T19:10:56.778Z,91.72
2018-12-01T19:13:25.765Z,91.50
2018-12-01T19:15:55.240Z,91.84
2018-12-01T19:18:24.558Z,91.42
2018-12-01T19:20:53.580Z,100.00
2018-12-01T19:23:22.712Z,100.00
2018-12-01T19:25:52.368Z,100.00
2018-12-01T19:28:21.450Z,97.63
2018-12-01T19:30:50.454Z,93.87
2018-12-01T19:33:21.353Z,89.34
2018-12-01T19:35:52.356Z,90.55
2018-12-01T19:38:26.907Z,88.18
2018-12-01T19:40:58.236Z,87.81
2018-12-01T19:43:27.204Z,87.56
2018-12-01T19:45:56.216Z,85.96
2018-12-01T19:48:25.298Z,85.65
2018-12-01T19:50:54.326Z,84.21
2018-12-01T19:53:23.383Z,82.25
2018-12-01T19:55:53.616Z,82.03
2018-12-01T19:58:24.812Z,80.14
2018-12-01T20:00:56.435Z,80.04
2018-12-01T20:03:27.171Z,81.27
2018-12-01T20:05:56.188Z,82.03
2018-12-01T20:08:25.566Z,82.81
2018-12-01T20:10:57.790Z,83.75
2018-12-01T20:13:36.364Z,84.54
2018-12-01T20:16:40.130Z,85.56
2018-12-01T20:19:09.467Z,86.74
2018-12-01T20:21:38.511Z,87.19
2018-12-01T20:24:08.540Z,88.15
2018-12-01T20:26:39.289Z,88.19
2018-12-01T20:29:08.327Z,89.02
2018-12-01T20:31:37.330Z,88.97
2018-12-01T20:34:07.185Z,88.87
2018-12-01T20:36:43.986Z,88.54
2018-12-01T20:39:27.182Z,88.67
2018-12-01T20:41:56.185Z,89.75
2018-12-01T20:44:25.339Z,90.38
2018-12-01T20:46:54.503Z,90.98
2018-12-01T20:49:23.526Z,91.30
2018-12-01T20:51:52.633Z,91.45
2018-12-01T20:54:35.182Z,91.63
2018-12-01T20:57:12.867Z,91.23
2018-12-01T20:59:41.895Z,90.92
2018-12-01T21:02:10.944Z,90.77
2018-12-01T21:04:39.944Z,90.26
2018-12-01T21:07:08.997Z,90.63
2018-12-01T21:09:38.064Z,90.53
2018-12-01T21:12:09.295Z,90.58
2018-12-01T21:14:38.377Z,90.88
2018-12-01T21:17:07.461Z,90.57
2018-12-01T21:19:36.471Z,90.68
2018-12-01T21:22:06.551Z,90.85
2018-12-01T21:24:35.624Z,91.00
2018-12-01T21:27:05.659Z,91.81
2018-12-01T21:29:34.746Z,91.93
2018-12-01T21:32:03.792Z,92.16
2018-12-01T21:34:32.832Z,91.73
2018-12-01T21:37:01.931Z,91.97
2018-12-01T21:39:31.177Z,92.79
2018-12-01T21:42:00.327Z,92.02
2018-12-01T21:44:29.447Z,91.91
2018-12-01T21:46:58.453Z,91.67
2018-12-01T21:49:27.500Z,91.98
2018-12-01T21:51:56.564Z,91.85
2018-12-01T21:54:25.623Z,92.22
2018-12-01T21:56:54.637Z,92.29
2018-12-01T21:59:23.734Z,92.06
2018-12-01T22:01:52.787Z,91.91
2018-12-01T22:04:21.750Z,92.54
2018-12-01T22:06:50.767Z,93.08
2018-12-01T22:09:19.906Z,93.00
2018-12-01T22:11:48.888Z,92.63
2018-12-01T22:14:17.943Z,92.83
2018-12-01T22:16:46.995Z,92.54
2018-12-01T22:19:16.060Z,92.24
2018-12-01T22:21:45.077Z,92.18
2018-12-01T22:24:14.151Z,91.96
2018-12-01T22:26:43.265Z,92.16
2018-12-01T22:29:13.346Z,92.04
2018-12-01T22:31:42.988Z,92.07
2018-12-01T22:34:11.977Z,92.47
2018-12-01T22:36:40.955Z,92.72
2018-12-01T22:39:11.087Z,92.62
2018-12-01T22:41:40.160Z,92.28
2018-12-01T22:44:09.242Z,92.37
2018-12-01T22:46:38.389Z,92.50
2018-12-01T22:49:07.481Z,92.14
2018-12-01T22:51:36.523Z,92.18
2018-12-01T22:54:06.106Z,92.55
2018-12-01T22:56:35.300Z,92.71
2018-12-01T22:59:04.348Z,92.72
2018-12-01T23:01:33.376Z,92.80
2018-12-01T23:04:02.380Z,92.75
2018-12-01T23:06:31.416Z,92.58
2018-12-01T23:09:00.496Z,92.29
2018-12-01T23:11:29.586Z,91.85
2018-12-01T23:13:58.566Z,92.12
2018-12-01T23:16:27.590Z,91.90
2018-12-01T23:18:56.572Z,92.44
2018-12-01T23:21:25.568Z,92.87
2018-12-01T23:23:54.639Z,93.41
2018-12-01T23:26:23.598Z,93.97
2018-12-01T23:28:52.683Z,93.64
2018-12-01T23:31:21.680Z,93.48
2018-12-01T23:33:50.739Z,93.63
2018-12-01T23:36:19.784Z,93.96
2018-12-01T23:38:48.824Z,94.14
2018-12-01T23:41:17.882Z,94.41
2018-12-01T23:43:46.856Z,93.83
2018-12-01T23:46:15.910Z,93.98
2018-12-01T23:48:44.921Z,94.37
2018-12-01T23:51:13.921Z,94.33
2018-12-01T23:53:42.926Z,94.34
2018-12-01T23:56:12.005Z,94.39
2018-12-01T23:58:41.577Z,94.36
